Stations météo

Publicité
Kinbrace, Grande-Bretagne (99016): Température de l'air & dewpoint: 15.01.2018 14:00:00 - 21.01.2018 14:00:00 (GMT)Kinbrace, Grande-Bretagne (99016): Vitesse du vent & gusts: 15.01.2018 14:00:00 - 21.01.2018 14:00:00 (GMT)Kinbrace, Grande-Bretagne (99016): Direction du vent: 15.01.2018 14:00:00 - 21.01.2018 14:00:00 (GMT)Kinbrace, Grande-Bretagne (99016): Quantités de précipitations: 15.01.2018 14:00:00 - 21.01.2018 14:00:00 (GMT)
Date & Time tt [°C] td [°C] ff [km/h] ff [knt] fx [km/h] fx [knt] dd rr [mm]
21.01.2018 14:00:00 1,7 -2,2 29 16 - - SE 0,0
21.01.2018 13:00:00 1,5 -1,4 22 12 - - SE 0,0
21.01.2018 12:00:00 1,6 -1,4 26 14 - - SE 0,0
21.01.2018 11:00:00 1,1 -0,5 21 11 - - ESE 0,0
21.01.2018 10:00:00 -2,4 -2,9 9 5 - - SE 0,0
21.01.2018 09:00:00 -12,8 -14,1 0 0 - - N 0,0
21.01.2018 08:00:00 -13,6 -15,0 2 1 - - NNW 0,0
21.01.2018 07:00:00 -11,1 -12,1 2 1 - - ESE 0,0
21.01.2018 06:00:00 -10,8 -11,7 2 1 - - SE 0,0
21.01.2018 05:00:00 -11,2 -12,5 0 0 - - N 0,0
21.01.2018 04:00:00 -9,2 -10,1 4 2 - - SE 0,0
21.01.2018 03:00:00 -9,6 -10,5 2 1 - - SSE 0,0
21.01.2018 02:00:00 -10,7 -11,8 2 1 - - S 0,0
21.01.2018 01:00:00 -8,8 -9,5 4 2 - - ESE 0,0
21.01.2018 00:00:00 -8,3 -9,0 2 1 - - SE 0,0
20.01.2018 23:00:00 -8,1 -8,8 2 1 - - SSE 0,0
20.01.2018 22:00:00 -6,8 -7,3 0 0 - - N 0,0
20.01.2018 21:00:00 -6,5 -7,1 2 1 - - S 0,0
20.01.2018 20:00:00 -4,3 -4,7 2 1 - - SSE 0,0
20.01.2018 19:00:00 -5,6 -6,0 2 1 - - ENE 0,0
20.01.2018 18:00:00 -7,5 -8,3 5 3 - - SSE 0,0
20.01.2018 17:00:00 -8,2 -9,3 2 1 - - S 0,0
20.01.2018 16:00:00 -6,1 -7,3 2 1 - - S 0,0
20.01.2018 15:00:00 -5,7 -7,0 2 1 - - SE 0,0
20.01.2018 14:00:00 -5,1 -6,7 4 2 - - SSE 0,0
20.01.2018 13:00:00 -6,1 -8,1 2 1 - - ESE 0,0
20.01.2018 12:00:00 -5,2 -6,7 2 1 - - SSE 0,0
20.01.2018 11:00:00 -7,4 -8,2 4 2 - - ESE 0,0
20.01.2018 10:00:00 -10,0 -11,0 4 2 - - SSE 0,0
20.01.2018 09:00:00 -6,8 -7,4 2 1 - - SE 0,0
20.01.2018 08:00:00 -6,8 -7,5 4 2 - - S 0,0
20.01.2018 07:00:00 -5,2 -5,9 4 2 - - E 0,0
20.01.2018 06:00:00 -3,3 -3,8 4 2 - - ENE 0,0
20.01.2018 05:00:00 -2,7 -3,1 4 2 - - ENE 0,0
20.01.2018 04:00:00 -3,2 -3,7 8 4 - - E 0,0
20.01.2018 03:00:00 -4,0 -4,6 4 2 - - SE 0,0
20.01.2018 02:00:00 -4,4 -5,0 4 2 - - E 0,0
20.01.2018 01:00:00 -4,2 -5,1 9 5 - - E 0,0
20.01.2018 00:00:00 -3,6 -4,6 9 5 - - E -
19.01.2018 23:00:00 -3,2 -4,1 5 3 - - E 0,0
19.01.2018 22:00:00 -4,0 -5,4 4 2 - - ESE 0,0
19.01.2018 21:00:00 -3,3 -4,4 4 2 - - SSE 0,0
19.01.2018 20:00:00 -2,7 -3,8 11 6 - - SW 0,0
19.01.2018 19:00:00 -2,6 -3,5 8 4 - - SW 0,0
19.01.2018 18:00:00 -0,6 -1,6 8 4 - - WSW 0,0
19.01.2018 17:00:00 -1,0 -2,3 4 2 - - W 0,0
19.01.2018 16:00:00 -1,9 -3,0 15 8 - - W 0,0
19.01.2018 15:00:00 -0,1 -1,6 13 7 - - WSW 0,0
19.01.2018 14:00:00 -0,3 -1,4 8 4 - - SW 0,0
19.01.2018 13:00:00 -0,1 -1,4 5 3 - - SE 0,0
19.01.2018 12:00:00 -0,4 -1,8 8 4 - - SSE 0,0
19.01.2018 11:00:00 -0,2 -2,1 4 2 - - SSE 0,0
19.01.2018 10:00:00 -3,0 -4,9 11 6 - - S 0,0
19.01.2018 09:00:00 -1,4 -2,8 13 7 - - SSW 0,0
19.01.2018 08:00:00 -2,5 -3,9 9 5 - - W 0,0
19.01.2018 07:00:00 -1,0 -2,4 8 4 - - SSE 0,0
19.01.2018 06:00:00 -0,1 -1,2 11 6 - - WSW 0,0
19.01.2018 05:00:00 -0,5 -2,4 13 7 - - WSW 0,0
19.01.2018 04:00:00 -1,1 -3,7 11 6 - - SSW 0,0
19.01.2018 03:00:00 0,3 -2,1 13 7 - - S 0,0
19.01.2018 02:00:00 -0,4 -1,8 9 5 - - WSW 0,0
19.01.2018 01:00:00 -0,1 -1,5 13 7 - - WSW 0,0
19.01.2018 00:00:00 0,9 -0,5 8 4 - - W 0,0
18.01.2018 23:00:00 0,4 -0,8 15 8 - - SW 0,0
18.01.2018 22:00:00 0,5 -1,0 8 4 - - WSW 0,0
18.01.2018 21:00:00 -0,5 -2,1 13 7 - - SSW 0,0
18.01.2018 20:00:00 -2,0 -3,0 9 5 - - ESE 0,0
18.01.2018 19:00:00 -2,8 -4,3 5 3 - - SE 0,0
18.01.2018 18:00:00 0,5 -1,9 15 8 - - W 0,0
18.01.2018 17:00:00 -1,5 -3,9 5 3 - - WNW 0,0
18.01.2018 16:00:00 0,5 -2,2 21 11 - - W 0,0
18.01.2018 15:00:00 0,4 -1,5 9 5 - - W 0,0
18.01.2018 14:00:00 0,3 -1,8 13 7 - - S 0,0
18.01.2018 13:00:00 0,0 -1,2 13 7 - - SSW 0,0
18.01.2018 12:00:00 -0,5 -1,1 5 3 - - SSW 0,0
18.01.2018 11:00:00 0,2 -0,1 4 2 - - NNW 0,0
18.01.2018 10:00:00 -1,8 -2,3 4 2 - - WNW 0,0
18.01.2018 09:00:00 -4,6 -5,6 5 3 - - SSW 0,0
18.01.2018 08:00:00 -2,6 -3,1 2 1 - - E 0,0
18.01.2018 07:00:00 -0,1 -0,3 8 4 - - W 0,0
18.01.2018 06:00:00 -3,4 -4,1 5 3 - - NNW 0,0
18.01.2018 05:00:00 -0,6 -1,3 4 2 - - NNE 0,0
18.01.2018 04:00:00 0,4 -0,6 11 6 - - WNW 0,0
18.01.2018 03:00:00 -0,2 -1,7 9 5 - - WSW 0,0
18.01.2018 02:00:00 -1,3 -2,5 4 2 - - NNE 0,0
18.01.2018 01:00:00 -1,7 -3,4 4 2 - - NNW 0,0
18.01.2018 00:00:00 -0,5 -2,2 8 4 - - N 0,0
17.01.2018 23:00:00 0,3 -1,0 15 8 - - WSW 0,0
17.01.2018 22:00:00 0,4 -0,7 15 8 - - W 0,0
17.01.2018 21:00:00 -0,2 -1,3 9 5 - - S 0,0
17.01.2018 20:00:00 0,0 -0,8 2 1 - - S 0,0
17.01.2018 19:00:00 0,2 -1,3 5 3 - - WSW 0,0
17.01.2018 18:00:00 1,0 -0,5 8 4 - - WSW 0,2
17.01.2018 17:00:00 0,7 -0,3 11 6 - - NW 0,4
17.01.2018 16:00:00 0,6 0,1 8 4 - - W 0,4
17.01.2018 15:00:00 0,6 -0,1 13 7 - - NW 1,0
17.01.2018 14:00:00 1,2 -0,3 29 16 - - WNW 1,4
17.01.2018 13:00:00 1,1 0,1 21 11 48 26 WNW 4,4
17.01.2018 12:00:00 2,2 -1,2 31 17 48 26 W 0,0
17.01.2018 11:00:00 2,0 -0,8 16 9 - - WNW 0,0
17.01.2018 10:00:00 1,8 -0,3 22 12 - - WNW 0,0
17.01.2018 09:00:00 1,1 0,2 13 7 - - WNW 0,0
17.01.2018 08:00:00 0,5 -0,4 21 11 - - WNW 0,0
17.01.2018 07:00:00 0,1 -1,0 26 14 48 26 WNW 0,0
17.01.2018 06:00:00 0,1 -0,4 35 19 57 31 WNW 0,0
17.01.2018 05:00:00 0,2 -0,2 26 14 46 25 WNW 0,0
17.01.2018 04:00:00 0,3 -0,1 26 14 - - WNW 0,0
17.01.2018 03:00:00 -0,9 -1,9 9 5 - - SW 0,0
17.01.2018 02:00:00 -1,8 -2,9 8 4 - - SW 0,0
17.01.2018 01:00:00 -1,6 -2,3 11 6 - - SW 0,0
17.01.2018 00:00:00 -1,7 -2,4 13 7 - - WSW 0,0
16.01.2018 23:00:00 -2,0 -4,3 11 6 - - SSW 0,0
16.01.2018 22:00:00 -1,8 -3,3 5 3 - - SSW 0,0
16.01.2018 21:00:00 -2,3 -3,4 9 5 - - SSW 0,0
16.01.2018 20:00:00 -2,1 -3,0 15 8 - - SSW 0,0
16.01.2018 19:00:00 -2,0 -3,5 5 3 - - SSW 0,0
16.01.2018 18:00:00 -2,2 -3,8 4 2 - - SSW 0,0
16.01.2018 17:00:00 -1,2 -2,1 16 9 - - SW 0,0
16.01.2018 16:00:00 -1,4 -2,2 9 5 - - SSW 0,0
16.01.2018 15:00:00 -1,1 -2,3 8 4 - - SSW 0,0
16.01.2018 14:00:00 -0,8 -1,5 8 4 - - SW 0,0
16.01.2018 13:00:00 -0,6 -1,6 9 5 - - SSW 0,0
16.01.2018 12:00:00 -0,5 -1,4 15 8 - - SW 0,0
16.01.2018 11:00:00 -0,8 -1,5 13 7 - - SW 0,0
16.01.2018 10:00:00 -0,4 -1,0 15 8 - - SSW 0,0
16.01.2018 09:00:00 -1,0 -2,0 11 6 - - SSW 0,0
16.01.2018 08:00:00 -1,1 -2,0 11 6 - - SW 0,0
16.01.2018 07:00:00 -1,2 -2,1 11 6 - - SSW 0,0
16.01.2018 06:00:00 -0,1 -0,6 13 7 - - SW 0,0
16.01.2018 05:00:00 -0,5 -1,2 8 4 - - S 0,0
16.01.2018 04:00:00 -1,1 -2,1 8 4 - - SW 0,0
16.01.2018 03:00:00 -0,4 -1,0 11 6 - - WSW 0,0
16.01.2018 02:00:00 -0,4 -1,0 13 7 - - SW 0,0
16.01.2018 01:00:00 -1,0 -1,8 8 4 - - SSW 0,0
16.01.2018 00:00:00 -0,7 -1,7 4 2 - - SW 0,0
15.01.2018 23:00:00 0,3 -0,6 8 4 - - SSW 0,0
15.01.2018 22:00:00 0,2 -0,6 4 2 - - WSW 0,2
15.01.2018 21:00:00 0,4 -0,1 9 5 - - SSW 0,0
15.01.2018 20:00:00 0,5 -0,2 16 9 - - SW 0,0
15.01.2018 19:00:00 0,8 0,1 16 9 - - SSW 0,2
15.01.2018 18:00:00 0,7 0,1 5 3 - - SW 0,2
15.01.2018 17:00:00 1,3 0,0 9 5 - - SSW 0,0
15.01.2018 16:00:00 1,5 0,4 15 8 - - SW 0,0
15.01.2018 15:00:00 1,2 0,1 11 6 - - SW 0,6
15.01.2018 14:00:00 2,5 0,7 9 5 - - SSW 0,0

tt = Température de l'air
td = dewpoint
ff = Vitesse du vent
fx = gusts
dd = Direction du vent
rr = Quantités de précipitations

stations d'obs. à proximité